createdAt,value
2023-01-25T00:01:41.242Z,0.89
2023-01-25T00:04:07.643Z,0.89
2023-01-25T00:06:34.037Z,0.90
2023-01-25T00:09:00.473Z,0.88
2023-01-25T00:11:26.882Z,0.86
2023-01-25T00:13:54.100Z,0.87
2023-01-25T00:16:20.743Z,0.86
2023-01-25T00:18:48.164Z,0.85
2023-01-25T00:21:18.724Z,0.85
2023-01-25T00:23:45.266Z,0.82
2023-01-25T00:26:11.699Z,0.77
2023-01-25T00:28:38.217Z,0.74
2023-01-25T00:31:05.506Z,0.66
2023-01-25T00:33:40.605Z,0.59
2023-01-25T00:36:27.470Z,0.53
2023-01-25T00:38:54.389Z,0.49
2023-01-25T00:41:20.832Z,0.46
2023-01-25T00:43:47.256Z,0.45
2023-01-25T00:46:17.060Z,0.46
2023-01-25T00:48:43.649Z,0.47
2023-01-25T00:51:10.205Z,0.46
2023-01-25T00:53:36.661Z,0.44
2023-01-25T00:56:03.318Z,0.41
2023-01-25T00:58:29.870Z,0.42
2023-01-25T01:00:57.015Z,0.42
2023-01-25T01:03:23.585Z,0.46
2023-01-25T01:06:02.634Z,0.47
2023-01-25T01:08:29.201Z,0.45
2023-01-25T01:11:00.220Z,0.42
2023-01-25T01:13:27.303Z,0.39
2023-01-25T01:15:53.700Z,0.42
2023-01-25T01:18:20.250Z,0.40
2023-01-25T01:20:52.955Z,0.35
2023-01-25T01:23:19.670Z,0.41
2023-01-25T01:25:46.206Z,0.45
2023-01-25T01:28:12.809Z,0.47
2023-01-25T01:30:39.320Z,0.54
2023-01-25T01:33:06.097Z,0.52
2023-01-25T01:35:32.678Z,0.50
2023-01-25T01:37:59.360Z,0.35
2023-01-25T01:40:25.769Z,0.41
2023-01-25T01:43:03.070Z,0.39
2023-01-25T01:45:47.994Z,0.42
2023-01-25T01:48:21.528Z,0.46
2023-01-25T01:50:48.766Z,0.49
2023-01-25T01:53:15.171Z,0.53
2023-01-25T01:55:41.578Z,0.47
2023-01-25T01:58:08.009Z,0.47
2023-01-25T02:00:35.510Z,0.49
2023-01-25T02:03:01.952Z,0.53
2023-01-25T02:05:51.370Z,0.54
2023-01-25T02:08:17.777Z,0.51
2023-01-25T02:10:44.239Z,0.46
2023-01-25T02:13:10.646Z,0.42
2023-01-25T02:15:42.085Z,0.34
2023-01-25T02:18:11.753Z,0.29
2023-01-25T02:20:51.891Z,0.19
2023-01-25T02:23:49.196Z,0.15
2023-01-25T02:26:15.633Z,0.11
2023-01-25T02:28:55.455Z,0.14
2023-01-25T02:31:22.203Z,0.21
2023-01-25T02:33:48.652Z,0.24
2023-01-25T02:36:37.489Z,0.30
2023-01-25T02:39:14.603Z,0.29
2023-01-25T02:41:41.848Z,0.26
2023-01-25T02:44:20.194Z,0.27
2023-01-25T02:46:46.658Z,0.22
2023-01-25T02:49:13.162Z,0.21
2023-01-25T02:51:45.530Z,0.18
2023-01-25T02:54:12.281Z,0.10
2023-01-25T02:56:38.899Z,0.04
2023-01-25T02:59:05.411Z,0.07
2023-01-25T03:01:38.264Z,0.15
2023-01-25T03:04:05.392Z,0.11
2023-01-25T03:06:32.368Z,0.10
2023-01-25T03:08:58.952Z,0.10
2023-01-25T03:11:25.367Z,0.11
2023-01-25T03:13:51.772Z,0.03
2023-01-25T03:16:18.270Z,0.03
2023-01-25T03:18:44.766Z,0.10
2023-01-25T03:21:18.212Z,0.16
2023-01-25T03:23:45.081Z,0.14
2023-01-25T03:26:12.644Z,0.13
2023-01-25T03:28:39.710Z,0.12
2023-01-25T03:31:06.855Z,-0.02
2023-01-25T03:33:33.319Z,-0.17
2023-01-25T03:35:59.841Z,-0.20
2023-01-25T03:38:26.266Z,-0.18
2023-01-25T03:40:52.780Z,-0.16
2023-01-25T03:43:19.217Z,-0.12
2023-01-25T03:45:45.621Z,-0.07
2023-01-25T03:48:12.365Z,-0.08
2023-01-25T03:50:38.766Z,-0.06
2023-01-25T03:53:05.152Z,-0.09
2023-01-25T03:55:31.616Z,-0.08
2023-01-25T03:57:58.015Z,-0.11
2023-01-25T04:00:24.447Z,-0.09
2023-01-25T04:02:50.853Z,-0.09
2023-01-25T04:05:17.477Z,-0.08
2023-01-25T04:07:43.871Z,-0.11
2023-01-25T04:10:10.728Z,-0.17
2023-01-25T04:12:37.137Z,-0.26
2023-01-25T04:15:03.797Z,-0.31
2023-01-25T04:17:30.202Z,-0.35
2023-01-25T04:19:56.613Z,-0.41
2023-01-25T04:22:23.004Z,-0.39
2023-01-25T04:24:49.409Z,-0.38
2023-01-25T04:27:15.838Z,-0.34
2023-01-25T04:29:42.303Z,-0.38
2023-01-25T04:32:08.986Z,-0.31
2023-01-25T04:34:35.567Z,-0.31
2023-01-25T04:37:02.031Z,-0.30
2023-01-25T04:39:28.431Z,-0.33
2023-01-25T04:41:54.854Z,-0.35
2023-01-25T04:44:21.253Z,-0.36
2023-01-25T04:46:47.668Z,-0.40
2023-01-25T04:49:14.065Z,-0.45
2023-01-25T04:51:40.502Z,-0.48
2023-01-25T04:54:06.926Z,-0.51
2023-01-25T04:56:33.352Z,-0.46
2023-01-25T04:58:59.806Z,-0.44
2023-01-25T05:01:26.322Z,-0.48
2023-01-25T05:03:52.997Z,-0.45
2023-01-25T05:06:19.400Z,-0.46
2023-01-25T05:08:45.795Z,-0.50
2023-01-25T05:11:12.188Z,-0.45
2023-01-25T05:13:38.616Z,-0.40
2023-01-25T05:16:05.368Z,-0.38
2023-01-25T05:18:47.125Z,-0.34
2023-01-25T05:21:14.664Z,-0.23
2023-01-25T05:23:41.084Z,-0.19
2023-01-25T05:26:07.891Z,-0.23
2023-01-25T05:28:34.351Z,-0.36
2023-01-25T05:31:04.066Z,-0.40
2023-01-25T05:33:30.558Z,-0.38
2023-01-25T05:35:56.957Z,-0.39
2023-01-25T05:38:23.369Z,-0.40
2023-01-25T05:40:49.768Z,-0.43
2023-01-25T05:43:16.204Z,-0.45
2023-01-25T05:45:42.745Z,-0.42
2023-01-25T05:48:09.260Z,-0.44
2023-01-25T05:50:35.716Z,-0.37
2023-01-25T05:53:02.149Z,-0.33
2023-01-25T05:55:28.569Z,-0.27
2023-01-25T05:57:55.927Z,-0.27
2023-01-25T06:00:22.769Z,-0.34
2023-01-25T06:02:49.245Z,-0.31
2023-01-25T06:05:15.766Z,-0.41
2023-01-25T06:07:42.163Z,-0.46
2023-01-25T06:10:09.291Z,-0.46
2023-01-25T06:12:35.686Z,-0.51
2023-01-25T06:15:02.165Z,-0.47
2023-01-25T06:17:28.631Z,-0.49
2023-01-25T06:19:55.048Z,-0.46
2023-01-25T06:22:21.448Z,-0.38
2023-01-25T06:24:47.877Z,-0.39
2023-01-25T06:27:14.268Z,-0.40
2023-01-25T06:29:40.695Z,-0.44
2023-01-25T06:32:07.165Z,-0.38
2023-01-25T06:34:33.591Z,-0.32
2023-01-25T06:37:00.029Z,-0.33
2023-01-25T06:39:26.444Z,-0.49
2023-01-25T06:41:52.887Z,-0.42
2023-01-25T06:44:19.296Z,-0.44
2023-01-25T06:46:45.734Z,-0.42
2023-01-25T06:49:12.195Z,-0.33
2023-01-25T06:51:38.619Z,-0.32
2023-01-25T06:54:05.047Z,-0.34
2023-01-25T06:56:31.520Z,-0.28
2023-01-25T06:58:57.929Z,-0.23
2023-01-25T07:01:24.552Z,-0.25
2023-01-25T07:03:52.251Z,-0.31
2023-01-25T07:06:18.897Z,-0.33
2023-01-25T07:08:45.310Z,-0.41
2023-01-25T07:11:12.084Z,-0.44
2023-01-25T07:13:38.910Z,-0.39
2023-01-25T07:16:06.626Z,-0.41
2023-01-25T07:18:33.210Z,-0.37
2023-01-25T07:21:21.757Z,-0.37
2023-01-25T07:23:52.050Z,-0.39
2023-01-25T07:26:21.886Z,-0.39
2023-01-25T07:28:48.357Z,-0.40
2023-01-25T07:31:15.143Z,-0.39
2023-01-25T07:33:41.616Z,-0.35
2023-01-25T07:36:08.957Z,-0.29
2023-01-25T07:38:35.890Z,-0.37
2023-01-25T07:41:02.678Z,-0.32
2023-01-25T07:43:29.237Z,-0.34
2023-01-25T07:46:09.793Z,-0.27
2023-01-25T07:48:36.223Z,-0.23
2023-01-25T07:51:04.030Z,-0.29
2023-01-25T07:53:30.458Z,-0.40
2023-01-25T07:55:58.603Z,-0.45
2023-01-25T07:58:25.140Z,-0.48
2023-01-25T08:00:51.536Z,-0.49
2023-01-25T08:03:17.952Z,-0.46
2023-01-25T08:05:44.822Z,-0.38
2023-01-25T08:08:11.228Z,-0.40
2023-01-25T08:10:37.977Z,-0.37
2023-01-25T08:13:04.402Z,-0.35
2023-01-25T08:15:30.808Z,-0.33
2023-01-25T08:17:59.832Z,-0.37
2023-01-25T08:20:26.233Z,-0.34
2023-01-25T08:22:52.656Z,-0.32
2023-01-25T08:25:19.073Z,-0.35
2023-01-25T08:27:45.467Z,-0.37
2023-01-25T08:30:12.053Z,-0.37
2023-01-25T08:32:38.792Z,-0.37
2023-01-25T08:35:05.647Z,-0.38
2023-01-25T08:37:32.065Z,-0.39
2023-01-25T08:39:58.559Z,-0.43
2023-01-25T08:42:25.032Z,-0.39
2023-01-25T08:44:51.482Z,-0.44
2023-01-25T08:47:18.002Z,-0.44
2023-01-25T08:49:44.466Z,-0.42
2023-01-25T08:52:10.877Z,-0.38
2023-01-25T08:54:37.337Z,-0.27
2023-01-25T08:57:03.742Z,-0.31
2023-01-25T08:59:30.237Z,-0.39
2023-01-25T09:01:56.648Z,-0.44
2023-01-25T09:04:23.080Z,-0.53
2023-01-25T09:06:49.492Z,-0.49
2023-01-25T09:09:15.897Z,-0.49
2023-01-25T09:11:42.336Z,-0.47
2023-01-25T09:14:11.009Z,-0.43
2023-01-25T09:16:37.459Z,-0.44
2023-01-25T09:19:04.033Z,-0.42
2023-01-25T09:21:30.533Z,-0.53
2023-01-25T09:24:06.028Z,-0.56
2023-01-25T09:26:34.429Z,-0.60
2023-01-25T09:29:00.932Z,-0.59
2023-01-25T09:31:28.978Z,-0.53
2023-01-25T09:33:55.441Z,-0.46
2023-01-25T09:36:22.004Z,-0.34
2023-01-25T09:38:48.500Z,-0.33
2023-01-25T09:41:30.084Z,-0.31
2023-01-25T09:44:31.950Z,-0.27
2023-01-25T09:46:59.806Z,-0.31
2023-01-25T09:49:58.173Z,-0.35
2023-01-25T09:52:49.175Z,-0.33
2023-01-25T09:55:16.295Z,-0.31
2023-01-25T09:57:43.018Z,-0.31
2023-01-25T10:00:21.696Z,-0.31
2023-01-25T10:02:49.774Z,-0.37
2023-01-25T10:05:21.810Z,-0.44
2023-01-25T10:07:58.118Z,-0.47
2023-01-25T10:10:36.336Z,-0.51
2023-01-25T10:13:02.775Z,-0.49
2023-01-25T10:15:55.975Z,-0.43
2023-01-25T10:18:27.141Z,-0.38
2023-01-25T10:20:59.729Z,-0.34
2023-01-25T10:23:44.964Z,-0.41
2023-01-25T10:26:28.253Z,-0.37
2023-01-25T10:29:02.987Z,-0.36
2023-01-25T10:31:50.804Z,-0.21
2023-01-25T10:34:22.343Z,-0.23
2023-01-25T10:36:56.469Z,-0.28
2023-01-25T10:39:22.985Z,-0.31
2023-01-25T10:41:52.807Z,-0.41
2023-01-25T10:44:19.211Z,-0.42
2023-01-25T10:46:49.478Z,-0.39
2023-01-25T10:49:27.325Z,-0.41
2023-01-25T10:51:53.736Z,-0.49
2023-01-25T10:54:20.148Z,-0.52
2023-01-25T10:56:46.565Z,-0.50
2023-01-25T10:59:25.371Z,-0.46
2023-01-25T11:01:51.871Z,-0.54
2023-01-25T11:04:44.668Z,-0.66
2023-01-25T11:07:27.357Z,-0.48
2023-01-25T11:09:53.923Z,-0.44
2023-01-25T11:12:20.796Z,-0.38
2023-01-25T11:14:48.115Z,-0.33
2023-01-25T11:17:23.540Z,-0.31
2023-01-25T11:19:49.957Z,-0.37
2023-01-25T11:22:19.292Z,-0.39
2023-01-25T11:24:45.744Z,-0.40
2023-01-25T11:27:19.126Z,-0.42
2023-01-25T11:29:46.297Z,-0.39
2023-01-25T11:32:16.552Z,-0.32
2023-01-25T11:34:42.945Z,-0.38
2023-01-25T11:37:27.957Z,-0.37
2023-01-25T11:40:01.191Z,-0.37
2023-01-25T11:42:59.985Z,-0.27
2023-01-25T11:45:41.518Z,-0.26
2023-01-25T11:48:40.270Z,-0.27
2023-01-25T11:51:08.608Z,-0.26
2023-01-25T11:53:53.644Z,-0.27
2023-01-25T11:56:58.985Z,-0.30
2023-01-25T11:59:53.867Z,-0.30
2023-01-25T12:02:29.340Z,-0.24
2023-01-25T12:05:21.076Z,-0.24
2023-01-25T12:08:12.578Z,-0.20
2023-01-25T12:11:03.976Z,-0.18
2023-01-25T12:13:36.105Z,-0.24
2023-01-25T12:16:23.819Z,-0.31
2023-01-25T12:19:07.246Z,-0.29
2023-01-25T12:21:58.350Z,-0.28
2023-01-25T12:24:44.868Z,-0.27
2023-01-25T12:27:28.339Z,-0.26
2023-01-25T12:30:12.281Z,-0.23
2023-01-25T12:32:52.661Z,-0.19
2023-01-25T12:35:22.244Z,-0.19
2023-01-25T12:37:48.713Z,-0.21
2023-01-25T12:40:28.185Z,-0.24
2023-01-25T12:42:57.153Z,-0.35
2023-01-25T12:45:29.019Z,-0.35
2023-01-25T12:48:00.302Z,-0.35
2023-01-25T12:50:56.623Z,-0.36
2023-01-25T12:53:47.685Z,-0.29
2023-01-25T12:56:46.776Z,-0.26
2023-01-25T12:59:28.460Z,-0.27
2023-01-25T13:02:22.195Z,-0.28
2023-01-25T13:05:05.342Z,-0.19
2023-01-25T13:07:39.810Z,-0.18
2023-01-25T13:10:14.188Z,-0.24
2023-01-25T13:13:02.456Z,-0.36
2023-01-25T13:15:39.966Z,-0.43
2023-01-25T13:18:24.678Z,-0.46
2023-01-25T13:20:52.764Z,-0.52
2023-01-25T13:23:33.002Z,-0.50
2023-01-25T13:26:38.567Z,-0.42
2023-01-25T13:29:28.217Z,-0.47
2023-01-25T13:31:57.164Z,-0.44
2023-01-25T13:34:36.814Z,-0.44
2023-01-25T13:37:14.970Z,-0.44
2023-01-25T13:39:42.740Z,-0.50
2023-01-25T13:42:09.080Z,-0.45
2023-01-25T13:44:37.027Z,-0.47
2023-01-25T13:47:04.465Z,-0.51
2023-01-25T13:49:36.952Z,-0.53
2023-01-25T13:52:03.830Z,-0.57
2023-01-25T13:54:30.268Z,-0.61
2023-01-25T13:57:04.006Z,-0.61
2023-01-25T13:59:30.439Z,-0.61
2023-01-25T14:01:57.685Z,-0.60
2023-01-25T14:04:24.201Z,-0.68
2023-01-25T14:06:57.869Z,-0.71
2023-01-25T14:09:24.341Z,-0.72
2023-01-25T14:11:58.495Z,-0.70
2023-01-25T14:14:26.667Z,-0.65
2023-01-25T14:17:18.224Z,-0.54
2023-01-25T14:19:46.886Z,-0.58
2023-01-25T14:22:25.803Z,-0.47
2023-01-25T14:25:11.337Z,-0.51
2023-01-25T14:27:47.144Z,-0.51
2023-01-25T14:30:20.462Z,-0.49
2023-01-25T14:32:46.874Z,-0.55
2023-01-25T14:35:49.425Z,-0.56
2023-01-25T14:38:39.301Z,-0.62
2023-01-25T14:41:27.032Z,-0.62
2023-01-25T14:43:54.009Z,-0.63
2023-01-25T14:46:27.596Z,-0.63
2023-01-25T14:49:12.287Z,-0.63
2023-01-25T14:51:55.129Z,-0.61
2023-01-25T14:54:23.430Z,-0.62
2023-01-25T14:56:57.170Z,-0.68
2023-01-25T14:59:27.400Z,-0.74
2023-01-25T15:01:54.234Z,-0.69
2023-01-25T15:04:20.826Z,-0.65
2023-01-25T15:06:51.253Z,-0.63
2023-01-25T15:09:31.894Z,-0.67
2023-01-25T15:12:03.480Z,-0.73
2023-01-25T15:14:29.922Z,-0.77
2023-01-25T15:16:56.527Z,-0.78
2023-01-25T15:19:29.728Z,-0.76
2023-01-25T15:21:58.445Z,-0.74
2023-01-25T15:24:25.023Z,-0.76
2023-01-25T15:26:52.712Z,-0.71
2023-01-25T15:29:25.492Z,-0.63
2023-01-25T15:31:52.040Z,-0.68
2023-01-25T15:34:23.232Z,-0.70
2023-01-25T15:36:49.727Z,-0.75
2023-01-25T15:39:17.987Z,-0.77
2023-01-25T15:41:44.637Z,-0.77
2023-01-25T15:44:11.330Z,-0.85
2023-01-25T15:46:39.376Z,-0.89
2023-01-25T15:49:06.409Z,-0.86
2023-01-25T15:51:35.588Z,-0.87
2023-01-25T15:54:02.235Z,-0.85
2023-01-25T15:56:30.719Z,-0.84
2023-01-25T15:58:58.632Z,-0.73
2023-01-25T16:01:27.540Z,-0.73
2023-01-25T16:03:57.920Z,-0.71
2023-01-25T16:06:44.018Z,-0.81
2023-01-25T16:09:21.930Z,-0.97
2023-01-25T16:11:50.854Z,-0.92
2023-01-25T16:14:17.359Z,-0.93
2023-01-25T16:16:52.908Z,-0.94
2023-01-25T16:19:23.359Z,-0.93
2023-01-25T16:21:52.826Z,-0.92
2023-01-25T16:24:21.685Z,-0.83
2023-01-25T16:26:54.015Z,-0.79
2023-01-25T16:29:20.503Z,-0.79
2023-01-25T16:31:47.105Z,-0.78
2023-01-25T16:34:13.852Z,-0.84
2023-01-25T16:36:40.271Z,-0.89
2023-01-25T16:39:15.708Z,-0.88
2023-01-25T16:41:42.117Z,-0.86
2023-01-25T16:44:08.723Z,-0.84
2023-01-25T16:46:35.190Z,-0.77
2023-01-25T16:49:01.650Z,-0.80
2023-01-25T16:51:28.250Z,-0.90
2023-01-25T16:53:56.084Z,-1.02
2023-01-25T16:56:23.890Z,-1.04
2023-01-25T16:58:50.808Z,-1.08
2023-01-25T17:01:18.114Z,-1.15
2023-01-25T17:03:44.780Z,-1.23
2023-01-25T17:06:16.133Z,-1.21
2023-01-25T17:08:42.711Z,-1.22
2023-01-25T17:11:09.106Z,-1.22
2023-01-25T17:13:35.568Z,-1.20
2023-01-25T17:16:01.991Z,-1.16
2023-01-25T17:18:28.532Z,-1.13
2023-01-25T17:21:02.252Z,-1.14
2023-01-25T17:23:28.687Z,-1.11
2023-01-25T17:25:55.412Z,-1.14
2023-01-25T17:28:22.265Z,-1.16
2023-01-25T17:30:48.779Z,-1.12
2023-01-25T17:33:15.271Z,-1.15
2023-01-25T17:35:41.712Z,-1.19
2023-01-25T17:38:08.104Z,-1.19
2023-01-25T17:40:35.615Z,-1.17
2023-01-25T17:43:02.495Z,-1.21
2023-01-25T17:45:28.944Z,-1.23
2023-01-25T17:47:55.347Z,-1.25
2023-01-25T17:50:21.744Z,-1.29
2023-01-25T17:52:48.237Z,-1.26
2023-01-25T17:55:14.865Z,-1.26
2023-01-25T17:57:41.340Z,-1.29
2023-01-25T18:00:08.833Z,-1.30
2023-01-25T18:02:35.613Z,-1.20
2023-01-25T18:05:02.029Z,-1.23
2023-01-25T18:07:28.714Z,-1.23
2023-01-25T18:09:55.121Z,-1.25
2023-01-25T18:12:21.558Z,-1.13
2023-01-25T18:14:47.953Z,-1.22
2023-01-25T18:17:14.381Z,-1.30
2023-01-25T18:19:40.936Z,-1.27
2023-01-25T18:22:07.505Z,-1.21
2023-01-25T18:24:34.578Z,-1.12
2023-01-25T18:27:15.868Z,-1.13
2023-01-25T18:29:54.378Z,-1.18
2023-01-25T18:32:20.837Z,-1.23
2023-01-25T18:34:47.258Z,-1.19
2023-01-25T18:37:14.466Z,-1.26
2023-01-25T18:39:40.880Z,-1.22
2023-01-25T18:42:07.296Z,-1.31
2023-01-25T18:44:33.845Z,-1.37
2023-01-25T18:47:00.349Z,-1.42
2023-01-25T18:49:26.823Z,-1.40
2023-01-25T18:52:08.782Z,-1.47
2023-01-25T18:54:37.955Z,-1.50
2023-01-25T18:57:04.374Z,-1.45
2023-01-25T18:59:30.844Z,-1.45
2023-01-25T19:01:57.270Z,-1.42
2023-01-25T19:04:23.822Z,-1.35
2023-01-25T19:06:50.328Z,-1.35
2023-01-25T19:09:16.748Z,-1.29
2023-01-25T19:11:43.133Z,-1.28
2023-01-25T19:14:09.592Z,-1.38
2023-01-25T19:16:36.019Z,-1.42
2023-01-25T19:19:02.555Z,-1.42
2023-01-25T19:21:28.947Z,-1.42
2023-01-25T19:23:55.551Z,-1.40
2023-01-25T19:26:23.281Z,-1.41
2023-01-25T19:28:49.763Z,-1.37
2023-01-25T19:31:18.332Z,-1.32
2023-01-25T19:33:44.932Z,-1.27
2023-01-25T19:36:13.230Z,-1.24
2023-01-25T19:38:39.713Z,-1.28
2023-01-25T19:41:10.078Z,-1.27
2023-01-25T19:43:36.503Z,-1.30
2023-01-25T19:46:25.120Z,-1.28
2023-01-25T19:48:51.825Z,-1.31
2023-01-25T19:51:28.981Z,-1.26
2023-01-25T19:54:16.830Z,-1.26
2023-01-25T19:56:44.732Z,-1.25
2023-01-25T19:59:16.052Z,-1.20
2023-01-25T20:01:42.876Z,-1.19
2023-01-25T20:04:09.952Z,-1.19
2023-01-25T20:06:36.382Z,-1.18
2023-01-25T20:09:02.857Z,-1.17
2023-01-25T20:11:30.380Z,-1.13
2023-01-25T20:13:58.577Z,-1.11
2023-01-25T20:16:25.223Z,-1.16
2023-01-25T20:18:51.688Z,-1.18
2023-01-25T20:21:21.842Z,-1.20
2023-01-25T20:23:50.997Z,-1.20
2023-01-25T20:26:21.738Z,-1.19
2023-01-25T20:28:50.094Z,-1.19
2023-01-25T20:31:24.399Z,-1.15
2023-01-25T20:33:51.779Z,-1.07
2023-01-25T20:36:18.315Z,-1.06
2023-01-25T20:38:44.882Z,-1.04
2023-01-25T20:41:12.788Z,-1.06
2023-01-25T20:43:39.318Z,-1.06
2023-01-25T20:46:05.758Z,-1.08
2023-01-25T20:48:32.168Z,-1.13
2023-01-25T20:51:05.483Z,-1.06
2023-01-25T20:53:33.201Z,-1.04
2023-01-25T20:55:59.722Z,-1.01
2023-01-25T20:58:26.653Z,-1.05
2023-01-25T21:00:53.415Z,-1.07
2023-01-25T21:03:20.091Z,-1.04
2023-01-25T21:05:56.360Z,-0.99
2023-01-25T21:08:23.125Z,-1.00
2023-01-25T21:10:57.431Z,-1.04
2023-01-25T21:13:24.147Z,-1.02
2023-01-25T21:16:13.144Z,-1.03
2023-01-25T21:18:40.954Z,-1.04
2023-01-25T21:21:11.609Z,-1.09
2023-01-25T21:23:39.673Z,-1.18
2023-01-25T21:26:06.461Z,-1.17
2023-01-25T21:28:33.419Z,-1.23
2023-01-25T21:31:07.565Z,-1.19
2023-01-25T21:33:34.026Z,-1.23
2023-01-25T21:36:01.193Z,-1.26
2023-01-25T21:38:27.694Z,-1.24
2023-01-25T21:41:00.106Z,-1.23
2023-01-25T21:43:26.540Z,-1.23
2023-01-25T21:45:52.986Z,-1.26
2023-01-25T21:48:19.399Z,-1.25
2023-01-25T21:50:45.875Z,-1.19
2023-01-25T21:53:12.296Z,-1.16
2023-01-25T21:55:38.689Z,-1.19
2023-01-25T21:58:05.149Z,-1.17
2023-01-25T22:00:31.574Z,-1.22
2023-01-25T22:02:58.055Z,-1.23
2023-01-25T22:05:24.517Z,-1.24
2023-01-25T22:07:51.023Z,-1.25
2023-01-25T22:10:17.450Z,-1.18
2023-01-25T22:12:43.831Z,-1.20
2023-01-25T22:15:10.653Z,-1.19
2023-01-25T22:17:40.015Z,-1.15
2023-01-25T22:20:06.854Z,-1.11
2023-01-25T22:22:33.263Z,-1.15
2023-01-25T22:24:59.684Z,-1.18
2023-01-25T22:27:47.756Z,-1.16
2023-01-25T22:30:14.251Z,-1.19
2023-01-25T22:32:40.647Z,-1.27
2023-01-25T22:35:07.760Z,-1.28
2023-01-25T22:37:35.231Z,-1.29
2023-01-25T22:40:01.672Z,-1.24
2023-01-25T22:42:28.130Z,-1.22
2023-01-25T22:44:58.914Z,-1.26
2023-01-25T22:47:25.411Z,-1.26
2023-01-25T22:49:51.828Z,-1.20
2023-01-25T22:52:18.257Z,-1.17
2023-01-25T22:54:44.931Z,-1.18
2023-01-25T22:57:11.354Z,-1.25
2023-01-25T22:59:37.830Z,-1.35
2023-01-25T23:02:06.755Z,-1.30
2023-01-25T23:04:33.564Z,-1.32
2023-01-25T23:06:59.995Z,-1.30
2023-01-25T23:09:26.469Z,-1.36
2023-01-25T23:11:52.864Z,-1.38
2023-01-25T23:14:19.262Z,-1.39
2023-01-25T23:16:45.767Z,-1.35
2023-01-25T23:19:12.216Z,-1.36
2023-01-25T23:21:38.653Z,-1.33
2023-01-25T23:24:05.373Z,-1.27
2023-01-25T23:26:32.826Z,-1.29
2023-01-25T23:28:59.217Z,-1.27
2023-01-25T23:31:26.836Z,-1.25
2023-01-25T23:33:55.004Z,-1.26
2023-01-25T23:36:25.881Z,-1.29
2023-01-25T23:38:52.459Z,-1.23
2023-01-25T23:41:19.749Z,-1.25
2023-01-25T23:43:46.260Z,-1.25
2023-01-25T23:46:12.839Z,-1.24
2023-01-25T23:48:39.283Z,-1.33
2023-01-25T23:51:05.724Z,-1.28
2023-01-25T23:53:32.261Z,-1.29
2023-01-25T23:56:02.984Z,-1.27
2023-01-25T23:58:29.490Z,-1.29
